createdAt,value
2022-10-06T00:02:02.766Z,100543.47
2022-10-06T00:04:31.548Z,100538.13
2022-10-06T00:07:00.506Z,100545.09
2022-10-06T00:09:30.723Z,100538.91
2022-10-06T00:11:59.578Z,100551.91
2022-10-06T00:14:28.388Z,100562.34
2022-10-06T00:16:57.135Z,100557.97
2022-10-06T00:19:26.545Z,100564.03
2022-10-06T00:21:55.297Z,100572.72
2022-10-06T00:24:24.025Z,100577.91
2022-10-06T00:26:54.054Z,100571.72
2022-10-06T00:29:23.541Z,100576.88
2022-10-06T00:31:53.551Z,100574.25
2022-10-06T00:34:22.485Z,100585.53
2022-10-06T00:36:51.256Z,100585.53
2022-10-06T00:39:20.459Z,100594.19
2022-10-06T00:41:48.956Z,100589.72
2022-10-06T00:44:19.139Z,100592.25
2022-10-06T00:46:51.803Z,100592.19
2022-10-06T00:49:24.965Z,100600.88
2022-10-06T00:51:58.613Z,100614.78
2022-10-06T00:54:28.747Z,100602.56
2022-10-06T00:56:57.938Z,100613.84
2022-10-06T00:59:28.305Z,100613.75
2022-10-06T01:02:03.388Z,100628.47
2022-10-06T01:04:36.784Z,100620.56
2022-10-06T01:07:06.755Z,100617.81
2022-10-06T01:09:36.722Z,100619.38
2022-10-06T01:12:09.081Z,100630.59
2022-10-06T01:14:41.310Z,100630.50
2022-10-06T01:17:19.640Z,100624.25
2022-10-06T01:19:54.696Z,100641.63
2022-10-06T01:22:31.035Z,100635.44
2022-10-06T01:24:59.891Z,100643.19
2022-10-06T01:27:32.216Z,100651.03
2022-10-06T01:30:01.938Z,100650.19
2022-10-06T01:32:36.653Z,100664.97
2022-10-06T01:35:08.764Z,100666.69
2022-10-06T01:37:38.975Z,100676.28
2022-10-06T01:40:08.847Z,100672.72
2022-10-06T01:42:38.802Z,100679.59
2022-10-06T01:45:09.250Z,100682.16
2022-10-06T01:47:37.781Z,100675.94
2022-10-06T01:50:08.278Z,100695.03
2022-10-06T01:52:38.666Z,100693.25
2022-10-06T01:55:08.669Z,100687.16
2022-10-06T01:57:40.817Z,100690.59
2022-10-06T02:00:12.802Z,100698.44
2022-10-06T02:02:41.464Z,100701.72
2022-10-06T02:05:10.791Z,100695.69
2022-10-06T02:07:45.001Z,100706.94
2022-10-06T02:10:16.671Z,100710.28
2022-10-06T02:12:46.033Z,100710.19
2022-10-06T02:15:14.897Z,100714.41
2022-10-06T02:17:43.804Z,100723.03
2022-10-06T02:20:12.342Z,100724.63
2022-10-06T02:22:43.676Z,100725.41
2022-10-06T02:25:14.259Z,100726.25
2022-10-06T02:27:43.786Z,100728.72
2022-10-06T02:30:14.579Z,100736.50
2022-10-06T02:32:44.809Z,100740.94
2022-10-06T02:35:14.052Z,100738.31
2022-10-06T02:37:42.887Z,100739.16
2022-10-06T02:40:17.029Z,100746.16
2022-10-06T02:42:46.679Z,100750.47
2022-10-06T02:45:18.990Z,100753.91
2022-10-06T02:47:47.594Z,100768.66
2022-10-06T02:50:17.111Z,100763.44
2022-10-06T02:52:46.932Z,100766.06
2022-10-06T02:55:17.015Z,100776.50
2022-10-06T02:57:45.550Z,100779.91
2022-10-06T03:00:16.415Z,100770.28
2022-10-06T03:02:49.736Z,100783.31
2022-10-06T03:05:18.683Z,100784.13
2022-10-06T03:07:47.290Z,100799.63
2022-10-06T03:10:17.493Z,100796.94
2022-10-06T03:12:46.004Z,100788.19
2022-10-06T03:15:14.858Z,100802.94
2022-10-06T03:17:43.337Z,100811.66
2022-10-06T03:20:11.935Z,100813.38
2022-10-06T03:22:40.532Z,100823.81
2022-10-06T03:25:10.470Z,100830.75
2022-10-06T03:27:40.478Z,100834.19
2022-10-06T03:30:11.297Z,100835.91
2022-10-06T03:32:39.925Z,100840.16
2022-10-06T03:35:11.264Z,100844.53
2022-10-06T03:37:39.956Z,100838.50
2022-10-06T03:40:10.532Z,100851.53
2022-10-06T03:42:40.527Z,100867.19
2022-10-06T03:45:10.736Z,100860.91
2022-10-06T03:47:39.245Z,100862.69
2022-10-06T03:50:09.627Z,100869.56
2022-10-06T03:52:38.389Z,100873.94
2022-10-06T03:55:07.821Z,100873.88
2022-10-06T03:57:36.302Z,100891.19
2022-10-06T04:00:07.664Z,100887.69
2022-10-06T04:02:40.789Z,100884.13
2022-10-06T04:05:11.212Z,100895.38
2022-10-06T04:07:39.790Z,100897.06
2022-10-06T04:10:11.269Z,100893.59
2022-10-06T04:12:39.900Z,100905.78
2022-10-06T04:15:11.492Z,100903.09
2022-10-06T04:17:40.313Z,100910.00
2022-10-06T04:20:09.468Z,100915.31
2022-10-06T04:22:37.985Z,100917.94
2022-10-06T04:25:07.854Z,100918.84
2022-10-06T04:27:36.421Z,100920.63
2022-10-06T04:30:16.118Z,100929.28
2022-10-06T04:32:45.708Z,100939.69
2022-10-06T04:35:15.127Z,100939.53
2022-10-06T04:37:44.073Z,100935.13
2022-10-06T04:40:12.957Z,100939.44
2022-10-06T04:42:42.992Z,100948.13
2022-10-06T04:45:16.776Z,100958.47
2022-10-06T04:47:45.857Z,100956.63
2022-10-06T04:50:14.787Z,100960.94
2022-10-06T04:53:01.855Z,100963.50
2022-10-06T04:55:30.470Z,100966.94
2022-10-06T04:57:59.442Z,100975.69
2022-10-06T05:00:33.248Z,100986.13
2022-10-06T05:03:05.506Z,100988.59
2022-10-06T05:05:34.416Z,100993.00
2022-10-06T05:08:03.364Z,100997.31
2022-10-06T05:10:32.479Z,101000.75
2022-10-06T05:13:03.792Z,101009.38
2022-10-06T05:15:33.878Z,101028.47
2022-10-06T05:18:02.329Z,101027.56
2022-10-06T05:20:31.223Z,101009.28
2022-10-06T05:23:00.637Z,101017.00
2022-10-06T05:25:29.329Z,101015.09
2022-10-06T05:27:57.974Z,101030.75
2022-10-06T05:30:26.665Z,101034.09
2022-10-06T05:32:56.808Z,101047.00
2022-10-06T05:35:25.345Z,101046.09
2022-10-06T05:37:56.047Z,101044.31
2022-10-06T05:40:25.026Z,101041.63
2022-10-06T05:42:56.665Z,101054.56
2022-10-06T05:45:25.214Z,101057.13
2022-10-06T05:47:57.181Z,101070.97
2022-10-06T05:50:26.686Z,101067.34
2022-10-06T05:52:56.375Z,101070.75
2022-10-06T05:55:26.299Z,101076.78
2022-10-06T05:57:56.236Z,101080.28
2022-10-06T06:00:25.306Z,101090.63
2022-10-06T06:02:53.939Z,101096.66
2022-10-06T06:05:24.088Z,101096.66
2022-10-06T06:07:53.393Z,101107.03
2022-10-06T06:10:22.103Z,101103.53
2022-10-06T06:12:50.706Z,101101.75
2022-10-06T06:16:04.431Z,101109.56
2022-10-06T06:18:38.117Z,101110.31
2022-10-06T06:21:11.619Z,101112.00
2022-10-06T06:23:46.313Z,101122.31
2022-10-06T06:26:18.486Z,101129.81
2022-10-06T06:28:51.077Z,101128.84
2022-10-06T06:31:22.597Z,101121.03
2022-10-06T06:33:54.017Z,101135.84
2022-10-06T06:36:28.821Z,101134.88
2022-10-06T06:38:59.666Z,101137.47
2022-10-06T06:41:31.225Z,101134.88
2022-10-06T06:44:08.481Z,101150.50
2022-10-06T06:46:40.421Z,101154.91
2022-10-06T06:49:12.322Z,101164.50
2022-10-06T06:51:49.844Z,101166.31
2022-10-06T06:54:20.509Z,101173.31
2022-10-06T06:56:55.290Z,101174.22
2022-10-06T06:59:25.252Z,101186.38
2022-10-06T07:01:57.744Z,101176.88
2022-10-06T07:04:28.021Z,101181.25
2022-10-06T07:06:58.534Z,101193.41
2022-10-06T07:09:32.797Z,101194.16
2022-10-06T07:12:12.710Z,101197.56
2022-10-06T07:15:07.642Z,101200.19
2022-10-06T07:17:58.475Z,101198.38
2022-10-06T07:20:44.457Z,101195.66
2022-10-06T07:23:35.885Z,101207.84
2022-10-06T07:26:07.197Z,101213.81
2022-10-06T07:28:35.816Z,101210.31
2022-10-06T07:31:05.726Z,101218.22
2022-10-06T07:33:35.044Z,101222.66
2022-10-06T07:36:06.976Z,101233.16
2022-10-06T07:38:37.778Z,101234.06
2022-10-06T07:41:18.997Z,101237.47
2022-10-06T07:43:53.748Z,101242.69
2022-10-06T07:46:22.675Z,101250.50
2022-10-06T07:49:21.353Z,101250.41
2022-10-06T07:51:50.201Z,101265.34
2022-10-06T07:54:24.005Z,101258.41
2022-10-06T07:57:20.710Z,101256.69
2022-10-06T07:59:50.644Z,101266.31
2022-10-06T08:02:19.928Z,101270.69
2022-10-06T08:04:48.877Z,101270.69
2022-10-06T08:07:17.456Z,101277.03
2022-10-06T08:09:48.771Z,101278.00
2022-10-06T08:12:37.732Z,101278.16
2022-10-06T08:15:08.660Z,101276.69
2022-10-06T08:17:37.895Z,101282.09
2022-10-06T08:20:09.035Z,101283.25
2022-10-06T08:22:38.811Z,101290.34
2022-10-06T08:25:11.049Z,101296.50
2022-10-06T08:27:43.233Z,101294.00
2022-10-06T08:30:13.695Z,101301.09
2022-10-06T08:32:43.314Z,101300.41
2022-10-06T08:35:12.392Z,101303.16
2022-10-06T08:37:40.855Z,101310.31
2022-10-06T08:40:15.629Z,101309.56
2022-10-06T08:42:46.282Z,101311.44
2022-10-06T08:45:20.616Z,101309.06
2022-10-06T08:47:59.074Z,101307.47
2022-10-06T08:50:32.859Z,101310.25
2022-10-06T08:53:16.295Z,101321.72
2022-10-06T08:55:51.508Z,101322.75
2022-10-06T08:58:48.016Z,101325.44
2022-10-06T09:01:20.328Z,101326.50
2022-10-06T09:03:52.197Z,101325.81
2022-10-06T09:06:39.633Z,101325.94
2022-10-06T09:09:25.321Z,101333.13
2022-10-06T09:12:07.968Z,101341.97
2022-10-06T09:14:42.592Z,101333.47
2022-10-06T09:17:16.266Z,101341.53
2022-10-06T09:19:49.698Z,101340.94
2022-10-06T09:22:21.119Z,101343.59
2022-10-06T09:24:55.181Z,101348.19
2022-10-06T09:27:29.949Z,101351.81
2022-10-06T09:29:59.901Z,101348.41
2022-10-06T09:32:31.653Z,101351.91
2022-10-06T09:35:00.906Z,101352.72
2022-10-06T09:37:32.658Z,101365.97
2022-10-06T09:40:01.561Z,101366.88
2022-10-06T09:42:37.304Z,101365.25
2022-10-06T09:45:09.871Z,101373.09
2022-10-06T09:47:45.716Z,101371.56
2022-10-06T09:50:22.776Z,101378.72
2022-10-06T09:53:16.332Z,101373.56
2022-10-06T09:55:54.947Z,101378.19
2022-10-06T09:58:41.550Z,101376.53
2022-10-06T10:01:14.403Z,101379.38
2022-10-06T10:04:15.535Z,101383.00
2022-10-06T10:06:46.757Z,101377.09
2022-10-06T10:09:49.709Z,101375.66
2022-10-06T10:12:36.674Z,101370.59
2022-10-06T10:15:31.271Z,101381.91
2022-10-06T10:18:06.172Z,101375.84
2022-10-06T10:20:38.840Z,101377.94
2022-10-06T10:23:30.081Z,101381.53
2022-10-06T10:26:14.642Z,101381.38
2022-10-06T10:29:22.273Z,101374.31
2022-10-06T10:32:04.919Z,101388.25
2022-10-06T10:35:05.304Z,101381.25
2022-10-06T10:37:52.386Z,101381.25
2022-10-06T10:40:31.348Z,101391.69
2022-10-06T10:43:12.016Z,101379.44
2022-10-06T10:45:46.416Z,101385.78
2022-10-06T10:48:24.116Z,101389.50
2022-10-06T10:51:01.728Z,101389.56
2022-10-06T10:53:45.430Z,101391.34
2022-10-06T10:56:17.726Z,101383.72
2022-10-06T10:58:49.337Z,101379.69
2022-10-06T11:01:31.852Z,101386.09
2022-10-06T11:04:02.764Z,101395.03
2022-10-06T11:07:04.430Z,101388.09
2022-10-06T11:09:42.320Z,101396.13
2022-10-06T11:12:28.169Z,101400.66
2022-10-06T11:15:00.269Z,101394.69
2022-10-06T11:17:44.142Z,101397.50
2022-10-06T11:20:46.166Z,101395.84
2022-10-06T11:23:35.116Z,101402.22
2022-10-06T11:26:14.498Z,101396.25
2022-10-06T11:28:48.404Z,101398.22
2022-10-06T11:31:27.797Z,101393.19
2022-10-06T11:33:59.799Z,101389.81
2022-10-06T11:36:43.981Z,101385.75
2022-10-06T11:39:22.882Z,101388.59
2022-10-06T11:41:57.988Z,101391.44
2022-10-06T11:44:33.545Z,101393.31
2022-10-06T11:47:08.476Z,101394.38
2022-10-06T11:49:53.461Z,101391.00
2022-10-06T11:52:48.237Z,101388.41
2022-10-06T11:55:23.928Z,101386.75
2022-10-06T11:58:41.270Z,101385.84
2022-10-06T12:01:05.134Z,101389.41
2022-10-06T12:03:47.385Z,101392.16
2022-10-06T12:07:07.819Z,101389.47
2022-10-06T12:10:34.274Z,101387.75
2022-10-06T12:13:41.239Z,101367.91
2022-10-06T12:19:23.385Z,101371.91
2022-10-06T12:22:01.153Z,101374.66
2022-10-06T12:24:42.334Z,101380.03
2022-10-06T12:27:37.290Z,101376.75
2022-10-06T12:30:20.162Z,101381.28
2022-10-06T12:32:54.380Z,101364.84
2022-10-06T12:35:31.409Z,101361.53
2022-10-06T12:38:04.951Z,101360.00
2022-10-06T12:40:57.973Z,101358.38
2022-10-06T12:43:57.037Z,101358.44
2022-10-06T12:46:45.099Z,101357.53
2022-10-06T12:49:49.181Z,101358.44
2022-10-06T12:52:44.956Z,101352.31
2022-10-06T12:55:33.248Z,101355.91
2022-10-06T12:58:02.365Z,101349.78
2022-10-06T13:00:40.523Z,101346.63
2022-10-06T13:03:17.554Z,101350.38
2022-10-06T13:05:53.217Z,101347.03
2022-10-06T13:08:27.834Z,101341.94
2022-10-06T13:11:21.953Z,101347.25
2022-10-06T13:13:52.866Z,101347.41
2022-10-06T13:16:25.373Z,101345.84
2022-10-06T13:18:58.423Z,101344.28
2022-10-06T13:21:29.035Z,101346.06
2022-10-06T13:23:57.940Z,101344.50
2022-10-06T13:26:35.862Z,101344.75
2022-10-06T13:29:05.892Z,101340.41
2022-10-06T13:31:37.925Z,101335.25
2022-10-06T13:34:08.827Z,101342.38
2022-10-06T13:36:39.794Z,101333.69
2022-10-06T13:39:14.418Z,101339.06
2022-10-06T13:41:47.360Z,101331.28
2022-10-06T13:44:37.888Z,101332.25
2022-10-06T13:47:16.591Z,101336.69
2022-10-06T13:49:51.763Z,101335.09
2022-10-06T13:52:25.413Z,101334.38
2022-10-06T13:54:57.735Z,101337.06
2022-10-06T13:57:42.965Z,101337.13
2022-10-06T14:00:22.065Z,101344.19
2022-10-06T14:02:56.147Z,101344.34
2022-10-06T14:05:31.748Z,101340.00
2022-10-06T14:08:03.214Z,101338.34
2022-10-06T14:10:48.587Z,101332.28
2022-10-06T14:13:19.998Z,101334.91
2022-10-06T14:15:51.177Z,101332.34
2022-10-06T14:18:28.469Z,101327.25
2022-10-06T14:20:58.475Z,101331.59
2022-10-06T14:23:48.639Z,101336.00
2022-10-06T14:26:19.025Z,101335.94
2022-10-06T14:28:51.831Z,101341.19
2022-10-06T14:31:21.213Z,101328.91
2022-10-06T14:33:53.157Z,101335.81
2022-10-06T14:36:24.566Z,101328.81
2022-10-06T14:38:53.748Z,101332.28
2022-10-06T14:41:27.855Z,101334.06
2022-10-06T14:43:57.875Z,101330.34
2022-10-06T14:46:26.946Z,101337.28
2022-10-06T14:48:57.796Z,101338.06
2022-10-06T14:51:30.068Z,101338.88
2022-10-06T14:54:00.999Z,101323.06
2022-10-06T14:56:32.612Z,101330.81
2022-10-06T14:59:04.846Z,101328.13
2022-10-06T15:01:35.348Z,101329.84
2022-10-06T15:04:07.491Z,101332.34
2022-10-06T15:06:53.656Z,101324.31
2022-10-06T15:09:22.176Z,101325.06
2022-10-06T15:11:51.755Z,101330.16
2022-10-06T15:14:21.216Z,101331.88
2022-10-06T15:16:50.010Z,101329.25
2022-10-06T15:19:20.157Z,101320.41
2022-10-06T15:21:48.916Z,101328.28
2022-10-06T15:24:20.191Z,101327.44
2022-10-06T15:27:07.131Z,101322.06
2022-10-06T15:29:36.049Z,101328.94
2022-10-06T15:32:06.936Z,101324.53
2022-10-06T15:34:38.178Z,101322.75
2022-10-06T15:37:07.466Z,101320.09
2022-10-06T15:39:38.059Z,101323.53
2022-10-06T15:42:08.797Z,101322.59
2022-10-06T15:44:37.904Z,101320.75
2022-10-06T15:47:07.343Z,101325.09
2022-10-06T15:49:40.549Z,101326.78
2022-10-06T15:52:12.409Z,101327.59
2022-10-06T15:54:42.056Z,101331.94
2022-10-06T15:57:17.854Z,101324.03
2022-10-06T15:59:49.162Z,101326.66
2022-10-06T16:02:20.238Z,101320.47
2022-10-06T16:05:17.905Z,101318.81
2022-10-06T16:07:46.532Z,101320.41
2022-10-06T16:10:15.243Z,101320.38
2022-10-06T16:12:43.941Z,101321.19
2022-10-06T16:15:12.680Z,101323.81
2022-10-06T16:17:41.240Z,101319.41
2022-10-06T16:20:11.951Z,101321.06
2022-10-06T16:22:41.202Z,101322.69
2022-10-06T16:25:10.748Z,101325.19
2022-10-06T16:27:39.501Z,101327.75
2022-10-06T16:30:09.998Z,101324.19
2022-10-06T16:32:38.708Z,101320.59
2022-10-06T16:35:08.747Z,101335.50
2022-10-06T16:37:38.901Z,101321.47
2022-10-06T16:40:08.731Z,101331.06
2022-10-06T16:42:37.544Z,101335.41
2022-10-06T16:45:07.888Z,101338.03
2022-10-06T16:47:36.398Z,101338.00
2022-10-06T16:50:05.400Z,101337.09
2022-10-06T16:52:34.164Z,101335.38
2022-10-06T16:55:04.187Z,101336.22
2022-10-06T16:57:32.702Z,101337.88
2022-10-06T17:00:01.169Z,101336.06
2022-10-06T17:02:29.690Z,101334.31
2022-10-06T17:04:58.148Z,101348.25
2022-10-06T17:07:26.632Z,101342.84
2022-10-06T17:10:18.577Z,101347.13
2022-10-06T17:12:45.712Z,101336.47
2022-10-06T17:15:14.299Z,101343.38
2022-10-06T17:17:42.792Z,101345.94
2022-10-06T17:20:11.590Z,101345.84
2022-10-06T17:22:40.385Z,101342.25
2022-10-06T17:25:10.502Z,101341.28
2022-10-06T17:27:42.075Z,101337.66
2022-10-06T17:30:15.333Z,101335.88
2022-10-06T17:32:45.435Z,101338.31
2022-10-06T17:35:13.963Z,101346.03
2022-10-06T17:37:42.581Z,101350.34
2022-10-06T17:40:11.562Z,101341.50
2022-10-06T17:42:41.325Z,101346.63
2022-10-06T17:45:11.979Z,101342.16
2022-10-06T17:47:41.575Z,101342.06
2022-10-06T17:50:11.391Z,101348.03
2022-10-06T17:52:40.472Z,101347.03
2022-10-06T17:55:10.573Z,101344.34
2022-10-06T17:57:40.019Z,101349.47
2022-10-06T18:00:12.290Z,101349.34
2022-10-06T18:02:41.625Z,101343.09
2022-10-06T18:05:11.228Z,101343.84
2022-10-06T18:07:39.942Z,101348.97
2022-10-06T18:10:23.170Z,101352.41
2022-10-06T18:12:51.856Z,101345.28
2022-10-06T18:15:21.841Z,101348.69
2022-10-06T18:17:50.682Z,101349.41
2022-10-06T18:20:19.472Z,101343.25
2022-10-06T18:22:48.626Z,101346.63
2022-10-06T18:25:17.170Z,101344.72
2022-10-06T18:27:47.566Z,101346.38
2022-10-06T18:30:16.352Z,101347.06
2022-10-06T18:38:23.481Z,101343.94
2022-10-06T18:40:57.929Z,101340.44
2022-10-06T18:43:26.404Z,101341.16
2022-10-06T18:46:12.210Z,101333.22
2022-10-06T18:48:58.732Z,101341.81
2022-10-06T18:51:33.674Z,101337.28
2022-10-06T18:54:05.330Z,101337.16
2022-10-06T18:56:37.650Z,101344.94
2022-10-06T18:59:10.420Z,101338.72
2022-10-06T19:01:42.063Z,101342.16
2022-10-06T19:04:15.176Z,101347.28
2022-10-06T19:06:49.858Z,101332.41
2022-10-06T19:09:20.345Z,101338.44
2022-10-06T19:11:52.225Z,101342.75
2022-10-06T19:14:23.592Z,101347.84
2022-10-06T19:16:56.596Z,101351.25
2022-10-06T19:19:28.385Z,101343.38
2022-10-06T19:21:59.743Z,101345.03
2022-10-06T19:24:31.381Z,101349.34
2022-10-06T19:27:00.717Z,101354.59
2022-10-06T19:29:36.454Z,101353.66
2022-10-06T19:32:08.031Z,101350.13
2022-10-06T19:34:39.131Z,101345.66
2022-10-06T19:37:07.879Z,101351.69
2022-10-06T19:39:42.901Z,101358.59
2022-10-06T19:42:29.493Z,101356.69
2022-10-06T19:44:58.105Z,101346.13
2022-10-06T19:47:27.259Z,101351.25
2022-10-06T19:50:02.047Z,101346.84
2022-10-06T19:52:32.775Z,101348.50
2022-10-06T19:55:01.781Z,101358.06
2022-10-06T19:57:31.020Z,101352.78
2022-10-06T19:59:59.682Z,101349.19
2022-10-06T20:02:28.921Z,101347.34
2022-10-06T20:04:59.438Z,101355.13
2022-10-06T20:07:28.163Z,101363.78
2022-10-06T20:09:56.871Z,101368.84
2022-10-06T20:12:26.885Z,101356.56
2022-10-06T20:14:56.105Z,101364.31
2022-10-06T20:17:24.803Z,101358.16
2022-10-06T20:19:57.852Z,101361.50
2022-10-06T20:22:28.079Z,101366.66
2022-10-06T20:24:56.557Z,101359.50
2022-10-06T20:27:25.366Z,101356.81
2022-10-06T20:29:53.855Z,101354.16
2022-10-06T20:32:23.101Z,101356.59
2022-10-06T20:34:51.852Z,101353.91
2022-10-06T20:37:20.307Z,101357.31
2022-10-06T20:40:07.578Z,101358.13
2022-10-06T20:42:36.099Z,101353.59
2022-10-06T20:45:05.415Z,101353.50
2022-10-06T20:47:34.240Z,101356.84
2022-10-06T20:50:02.920Z,101347.25
2022-10-06T20:52:31.653Z,101353.22
2022-10-06T20:55:01.837Z,101353.94
2022-10-06T20:57:33.705Z,101354.81
2022-10-06T21:00:02.423Z,101349.41
2022-10-06T21:02:32.071Z,101338.84
2022-10-06T21:05:02.139Z,101352.72
2022-10-06T21:07:30.573Z,101339.59
2022-10-06T21:09:59.200Z,101335.13
2022-10-06T21:12:29.079Z,101343.78
2022-10-06T21:14:57.906Z,101342.00
2022-10-06T21:17:26.611Z,101334.06
2022-10-06T21:19:55.347Z,101331.34
2022-10-06T21:22:23.974Z,101333.91
2022-10-06T21:24:52.701Z,101324.13
2022-10-06T21:27:21.179Z,101324.97
2022-10-06T21:29:51.291Z,101323.19
2022-10-06T21:32:19.927Z,101329.13
2022-10-06T21:34:48.393Z,101333.47
2022-10-06T21:37:16.842Z,101327.28
2022-10-06T21:39:45.409Z,101325.41
2022-10-06T21:42:13.887Z,101326.22
2022-10-06T21:44:42.417Z,101325.28
2022-10-06T21:47:12.419Z,101320.00
2022-10-06T21:49:40.974Z,101315.50
2022-10-06T21:52:10.581Z,101324.19
2022-10-06T21:54:39.057Z,101323.19
2022-10-06T21:57:08.042Z,101315.22
2022-10-06T21:59:36.626Z,101310.88
2022-10-06T22:02:05.298Z,101305.63
2022-10-06T22:04:35.452Z,101312.47
2022-10-06T22:07:04.080Z,101308.88
2022-10-06T22:09:33.181Z,101302.75
2022-10-06T22:12:02.149Z,101296.44
2022-10-06T22:14:30.643Z,101302.47
2022-10-06T22:16:59.261Z,101295.50
2022-10-06T22:19:27.721Z,101295.41
2022-10-06T22:21:57.710Z,101293.63
2022-10-06T22:24:26.274Z,101289.22
2022-10-06T22:26:54.796Z,101292.63
2022-10-06T22:29:23.347Z,101289.97
2022-10-06T22:31:52.134Z,101283.88
2022-10-06T22:34:21.851Z,101284.69
2022-10-06T22:36:50.589Z,101287.19
2022-10-06T22:39:20.695Z,101284.53
2022-10-06T22:41:49.197Z,101277.47
2022-10-06T22:44:17.699Z,101274.75
2022-10-06T22:46:46.178Z,101266.03
2022-10-06T22:49:14.741Z,101264.19
2022-10-06T22:51:43.263Z,101261.50
2022-10-06T22:54:22.169Z,101259.72
2022-10-06T22:56:51.063Z,101262.09
2022-10-06T22:59:19.541Z,101261.13
2022-10-06T23:01:48.335Z,101259.41
2022-10-06T23:04:16.945Z,101248.94
2022-10-06T23:06:45.497Z,101249.75
2022-10-06T23:09:14.212Z,101244.53
2022-10-06T23:11:44.011Z,101237.53
2022-10-06T23:14:12.439Z,101238.25
2022-10-06T23:16:40.986Z,101240.81
2022-10-06T23:19:09.563Z,101232.03
2022-10-06T23:21:40.357Z,101230.97
2022-10-06T23:24:09.173Z,101230.06
2022-10-06T23:26:38.060Z,101231.69
2022-10-06T23:29:07.922Z,101229.06
2022-10-06T23:31:36.573Z,101216.78
2022-10-06T23:34:05.043Z,101215.91
2022-10-06T23:36:33.621Z,101214.94
2022-10-06T23:39:02.438Z,101220.97
2022-10-06T23:41:30.882Z,101218.25
2022-10-06T23:43:59.646Z,101219.94
2022-10-06T23:46:29.600Z,101212.84
2022-10-06T23:48:58.693Z,101215.34
2022-10-06T23:51:27.655Z,101210.09
2022-10-06T23:53:56.162Z,101209.94
2022-10-06T23:56:25.419Z,101206.38
2022-10-06T23:58:53.937Z,101206.38
